Nadeshiko_maru — JD2502 — position and weather

sailwx.info

Track history (hours):
 
Tides and Currents Weather Stations Pressure Air Temp Water Temp Dewpoint Dewpoint Depression Visibility Wind Speed Wind Dir Waves Ship Positions

Nadeshiko_maru

Last reported at 2018-May-15 14:20 UTC. Time now 2018-Jun-23 04:44 UTC.
Position N 34°11' E 132°20'.
Warning: this ship's position is 38 days out of date.

Length 69 m; draft 4.5 m.

Type: Tanker. MMSI: 431000393.

Date/timePositionNaut miles runAvg speedWind from/ knotsBaromVisibWave heightAir tempDewpointWater temp
2018-May-15 14:20N 34°11' E 132°20'310.1
2018-May-15 14:00N 34°08' E 132°20'5 9.8
2018-May-15 13:30N 34°03' E 132°17'6 9.9
2018-May-15 12:54N 33°59' E 132°12'4 9.2
2018-May-15 12:27N 33°56' E 132°09'610.7
2018-May-15 11:54N 33°50' E 132°10'410.5
2018-May-15 11:30N 33°47' E 132°06'510.3
2018-May-15 10:59N 33°45' E 132°00'510.0
2018-May-15 10:30N 33°45' E 131°54'5 9.5
2018-May-15 09:59N 33°46' E 131°49'4 9.2
2018-May-15 09:30N 33°47' E 131°43'5 9.1
2018-May-15 09:00N 33°48' E 131°38'5 9.3
2018-May-15 08:30N 33°49' E 131°32'5 9.4
2018-May-15 08:00N 33°50' E 131°27'5 9.6
2018-May-15 07:30N 33°51' E 131°21'5 9.7
2018-May-15 07:00N 33°52' E 131°16'4 8.5
2018-May-15 06:30N 33°55' E 131°12'1 2.6
2018-May-15 06:00N 33°56' E 131°11'0 0.0
2018-May-15 05:30N 33°56' E 131°11'0 0.0
2018-May-15 05:00N 33°56' E 131°11'0 0.0
2018-May-15 04:30N 33°56' E 131°11'0 0.0
2018-May-15 04:00N 33°56' E 131°11'0 0.5
2018-May-15 03:30N 33°56' E 131°11'1 1.9
2018-May-15 03:00N 33°55' E 131°12'1 2.3
2018-May-15 02:30N 33°54' E 131°11'0 0.0
2018-May-15 02:00N 33°54' E 131°11'2 3.0
2018-May-15 01:30N 33°54' E 131°09'510.3
2018-May-15 01:00N 33°56' E 131°04'4 9.0
2018-May-15 00:30N 33°58' E 130°59'4 7.6
2018-May-15 00:00N 33°55' E 130°56'3 5.3
2018-May-14 23:30N 33°55' E 130°53'5 9.1
2018-May-14 23:00N 33°58' E 130°48'510.8
2018-May-14 22:30N 33°58' E 130°42'611.1
2018-May-14 22:00N 33°57' E 130°35'611.3
2018-May-14 21:29N 33°57' E 130°28'510.4
2018-May-14 21:00N 33°55' E 130°22'611.3
2018-May-14 20:30N 33°52' E 130°16'611.4
2018-May-14 20:00N 33°49' E 130°10'611.3
2018-May-14 19:30N 33°46' E 130°05'911.4
2018-May-14 18:44N 33°41' E 129°56'511.7
2018-May-14 18:20N 33°39' E 129°51'411.4
2018-May-14 18:00N 33°38' E 129°47'711.3
2018-May-14 17:22N 33°34' E 129°39'411.3
2018-May-14 17:00N 33°33' E 129°34'17 0.5
2018-May-13 10:25N 33°40' E 129°52'5 9.7
2018-May-13 09:54N 33°43' E 129°58'4 9.6
2018-May-13 09:30N 33°45' E 130°02'910.0
2018-May-13 08:34N 33°49' E 130°11'1 9.9
2018-May-13 08:28N 33°50' E 130°13'510.1
2018-May-13 08:00N 33°52' E 130°17'510.1
2018-May-13 07:29N 33°55' E 130°23'510.1
2018-May-13 07:00N 33°56' E 130°28'5 9.7
2018-May-13 06:30N 33°57' E 130°34'5 9.8
2018-May-13 06:00N 33°58' E 130°40'5 9.9
2018-May-13 05:30N 33°58' E 130°46'5 9.4
2018-May-13 05:00N 33°57' E 130°51'4 7.9
2018-May-13 04:30N 33°55' E 130°55'3 6.1
2018-May-13 04:00N 33°57' E 130°57'3 5.1
2018-May-13 03:30N 33°59' E 130°59'4 8.8
2018-May-13 03:00N 33°57' E 131°04'5 9.6
2018-May-13 02:31N 33°55' E 131°09'2 4.5
2018-May-13 02:00N 33°56' E 131°11'0 0.1
2018-May-13 01:30N 33°56' E 131°11'0 0.0
2018-May-13 01:00N 33°56' E 131°11'0 0.0
2018-May-13 00:30N 33°56' E 131°11'0 0.0
2018-May-13 00:00N 33°56' E 131°11'0 0.0
2018-May-12 23:30N 33°56' E 131°11'0 0.0
2018-May-12 23:00N 33°56' E 131°11'0 0.0
2018-May-12 22:30N 33°56' E 131°11'1 2.5
2018-May-12 22:00N 33°55' E 131°12'1 2.9
2018-May-12 21:30N 33°54' E 131°11'0 0.0
2018-May-12 21:00N 33°54' E 131°11'0 0.0
2018-May-12 20:29N 33°54' E 131°11'0 0.0
2018-May-12 20:00N 33°54' E 131°11'0 0.0
2018-May-12 19:30N 33°54' E 131°11'0 0.0
2018-May-12 19:00N 33°54' E 131°11'0 0.0
2018-May-12 18:30N 33°54' E 131°11'0 0.0
2018-May-12 18:00N 33°54' E 131°11'0 0.0
2018-May-12 17:28N 33°54' E 131°11'0 0.0
2018-May-12 17:00N 33°54' E 131°11'0 0.0
2018-May-12 16:30N 33°54' E 131°11'0 0.0
2018-May-12 16:00N 33°54' E 131°11'0 0.0
2018-May-12 15:30N 33°54' E 131°11'0 0.0
2018-May-12 15:00N 33°53' E 131°11'0 0.0
2018-May-12 14:30N 33°53' E 131°11'0 0.0
2018-May-12 13:59N 33°53' E 131°11'0 0.0
2018-May-12 13:30N 33°53' E 131°11'0 0.0
2018-May-12 13:00N 33°53' E 131°11'0 0.0
2018-May-12 12:30N 33°53' E 131°11'0 0.0
2018-May-12 12:00N 33°53' E 131°11'0 0.0
2018-May-12 11:30N 33°53' E 131°11'0 0.1
2018-May-12 11:00N 33°53' E 131°11'4 7.5
2018-May-12 10:30N 33°52' E 131°16'611.3
2018-May-12 10:00N 33°51' E 131°22'611.5
2018-May-12 09:30N 33°50' E 131°29'611.2
2018-May-12 09:00N 33°49' E 131°36'611.6
2018-May-12 08:30N 33°48' E 131°43'611.4
2018-May-12 08:00N 33°47' E 131°49'611.6
2018-May-12 07:30N 33°46' E 131°56'611.4
2018-May-12 07:00N 33°46' E 132°03'611.0
2018-May-12 06:26N 33°49' E 132°09'410.0
2018-May-12 06:00N 33°54' E 132°09'4 8.1
2018-May-12 05:30N 33°58' E 132°11'5 9.8
2018-May-12 04:57N 34°02' E 132°15'511.0
2018-May-12 04:29N 34°06' E 132°19'611.1
2018-May-12 03:57N 34°12' E 132°20'510.4
2018-May-12 03:30N 34°16' E 132°22'611.4
2018-May-12 03:00N 34°18' E 132°28'1 3.0
2018-May-12 02:30N 34°18' E 132°30'0 0.0
2018-May-12 02:00N 34°18' E 132°30'0 0.0
2018-May-12 01:30N 34°18' E 132°30'0 0.0
2018-May-12 01:00N 34°18' E 132°30'0 0.0
2018-May-12 00:30N 34°18' E 132°30'0 0.0
2018-May-12 00:00N 34°18' E 132°30'0 0.3
2018-May-11 23:30N 34°18' E 132°30'1 1.7
2018-May-11 23:00N 34°18' E 132°29'0 0.1
2018-May-11 22:30N 34°18' E 132°29'0 0.0
2018-May-11 22:00N 34°18' E 132°29'0 0.1
2018-May-11 21:30N 34°18' E 132°29'0 0.0
2018-May-11 21:00N 34°18' E 132°29'0 0.1
2018-May-11 20:30N 34°18' E 132°29'0 0.0
2018-May-11 20:00N 34°18' E 132°29'0 0.0
2018-May-11 19:30N 34°18' E 132°29'0 0.0
2018-May-11 19:00N 34°18' E 132°29'0 0.0
2018-May-11 18:29N 34°18' E 132°29'0 0.0
2018-May-11 18:00N 34°18' E 132°29'0 0.0
2018-May-11 17:30N 34°18' E 132°29'0 0.1
2018-May-11 17:00N 34°18' E 132°29'0 0.0
2018-May-11 16:30N 34°18' E 132°29'0 0.0
2018-May-11 15:59N 34°18' E 132°29'0 0.0
2018-May-11 15:30N 34°18' E 132°29'0 0.0
2018-May-11 15:00N 34°18' E 132°29'0 0.0
2018-May-11 14:29N 34°18' E 132°29'0 0.0
2018-May-11 14:00N 34°18' E 132°29'0 0.0
2018-May-11 13:30N 34°18' E 132°29'0 0.0
2018-May-11 13:00N 34°18' E 132°29'3 5.8
2018-May-11 12:30N 34°17' E 132°26'5 9.9
2018-May-11 11:59N 34°15' E 132°20'510.0
2018-May-11 11:30N 34°10' E 132°20'5 9.7
2018-May-11 11:00N 34°05' E 132°18'610.2
2018-May-11 10:27N 34°01' E 132°14'5 9.5
2018-May-11 09:57N 33°57' E 132°10'4 9.0
2018-May-11 09:30N 33°53' E 132°10'5 9.5
2018-May-11 08:58N 33°48' E 132°08'510.5
2018-May-11 08:30N 33°46' E 132°03'510.4
2018-May-11 08:00N 33°45' E 131°57'510.0
2018-May-11 07:30N 33°46' E 131°51'510.0
2018-May-11 06:58N 33°47' E 131°44'5 9.8
2018-May-11 06:29N 33°48' E 131°39'5 9.9
2018-May-11 06:00N 33°48' E 131°33'5 9.6
2018-May-11 05:30N 33°50' E 131°27'5 9.7
2018-May-11 05:00N 33°51' E 131°22'5 9.6
2018-May-11 04:30N 33°52' E 131°16'5 9.0
2018-May-11 04:00N 33°54' E 131°12'1 1.2
2018-May-11 03:30N 33°55' E 131°11'1 2.2
2018-May-11 03:00N 33°56' E 131°12'1 1.3
2018-May-11 02:30N 33°56' E 131°11'0 0.0
2018-May-11 02:00N 33°56' E 131°11'0 0.0
2018-May-11 01:30N 33°56' E 131°11'0 0.0
2018-May-11 01:00N 33°56' E 131°11'0 0.0
2018-May-11 00:30N 33°56' E 131°11'0 0.0
2018-May-11 00:00N 33°56' E 131°11'2 3.9
2018-May-10 23:30N 33°54' E 131°12'4 8.5
2018-May-10 23:00N 33°54' E 131°06'510.6
2018-May-10 22:30N 33°58' E 131°02'4 8.1
2018-May-10 22:00N 33°57' E 130°57'1 2.4
2018-May-10 21:30N 33°57' E 130°56'0 0.0
2018-May-10 21:00N 33°57' E 130°56'0 0.0
2018-May-10 20:30N 33°57' E 130°56'0 0.0
2018-May-10 20:00N 33°57' E 130°56'0 0.0
2018-May-10 19:30N 33°57' E 130°56'0 0.0
2018-May-10 19:00N 33°57' E 130°56'0 0.0
2018-May-10 18:30N 33°57' E 130°56'0 0.0
2018-May-10 18:00N 33°57' E 130°56'0 0.0
2018-May-10 17:30N 33°57' E 130°56'0 0.0
2018-May-10 17:00N 33°57' E 130°56'0 0.0
2018-May-10 16:30N 33°57' E 130°56'0 0.0
2018-May-10 16:00N 33°57' E 130°56'0 0.0
2018-May-10 15:30N 33°57' E 130°56'0 0.0
2018-May-10 15:00N 33°57' E 130°56'0 0.0
2018-May-10 14:30N 33°57' E 130°56'0 0.0
2018-May-10 13:59N 33°57' E 130°56'0 0.0
2018-May-10 13:30N 33°57' E 130°56'0 0.0
2018-May-10 13:00N 33°57' E 130°56'0 0.0
2018-May-10 12:30N 33°57' E 130°56'0 0.0
2018-May-10 12:00N 33°57' E 130°56'0 0.0
2018-May-10 11:30N 33°57' E 130°56'0 0.0
2018-May-10 11:00N 33°57' E 130°56'0 0.0
2018-May-10 10:30N 33°57' E 130°56'0 0.0
2018-May-10 10:00N 33°57' E 130°56'0 0.0
2018-May-10 09:30N 33°57' E 130°56'0 0.0
2018-May-10 09:00N 33°57' E 130°56'0 0.0
2018-May-10 08:30N 33°57' E 130°56'0 0.0
2018-May-10 08:00N 33°57' E 130°56'0 0.0
2018-May-10 07:30N 33°57' E 130°56'0 0.0
2018-May-10 07:00N 33°57' E 130°56'2 4.5
2018-May-10 06:30N 33°54' E 130°55'510.7
2018-May-10 06:00N 33°58' E 130°50'611.1
2018-May-10 05:30N 33°58' E 130°43'510.8
2018-May-10 05:00N 33°57' E 130°37'510.7
2018-May-10 04:30N 33°56' E 130°31'5 9.2
2018-May-10 04:00N 33°53' E 130°27'510.5
2018-May-10 03:30N 33°49' E 130°23'510.1
2018-May-10 03:00N 33°45' E 130°19'5 9.3
2018-May-10 02:30N 33°41' E 130°17'4 8.9
2018-May-10 02:00N 33°39' E 130°21'0 0.2
2018-May-10 01:30N 33°39' E 130°21'0 0.0
2018-May-10 01:00N 33°39' E 130°21'0 0.0
2018-May-10 00:30N 33°39' E 130°21'0 0.0
2018-May-10 00:00N 33°39' E 130°21'1 1.7
2018-May-09 23:30N 33°38' E 130°21'1 1.3
2018-May-09 23:00N 33°37' E 130°20'0 0.0
2018-May-09 22:30N 33°37' E 130°20'0 0.1
2018-May-09 22:00N 33°38' E 130°20'0 0.0
2018-May-09 21:30N 33°38' E 130°20'0 0.1
2018-May-09 21:00N 33°38' E 130°20'0 0.0
2018-May-09 20:30N 33°38' E 130°20'0 0.0
2018-May-09 20:00N 33°38' E 130°20'0 0.1
2018-May-09 19:30N 33°38' E 130°20'1 1.7
2018-May-09 19:00N 33°38' E 130°19'5 9.3
2018-May-09 18:29N 33°42' E 130°16'510.7
2018-May-09 18:00N 33°46' E 130°20'510.8
2018-May-09 17:30N 33°50' E 130°24'510.7
2018-May-09 17:00N 33°54' E 130°28'5 9.7
2018-May-09 16:30N 33°57' E 130°33'510.5
2018-May-09 16:00N 33°58' E 130°39'510.7
2018-May-09 15:30N 33°58' E 130°46'510.0
2018-May-09 15:01N 33°57' E 130°52'4 7.9
2018-May-09 14:30N 33°55' E 130°55'4 7.8
2018-May-09 14:00N 33°58' E 130°58'4 7.6
2018-May-09 13:30N 33°58' E 131°02'5 9.9
2018-May-09 13:00N 33°55' E 131°07'4 7.5
2018-May-09 12:30N 33°55' E 131°12'1 1.4
2018-May-09 12:00N 33°56' E 131°11'0 0.0
2018-May-09 11:30N 33°56' E 131°11'0 0.0
2018-May-09 11:00N 33°56' E 131°11'0 0.0
2018-May-09 10:30N 33°56' E 131°11'0 0.1
2018-May-09 10:00N 33°56' E 131°11'3 5.5
2018-May-09 09:30N 33°55' E 131°08'511.1
2018-May-09 09:00N 33°57' E 131°03'5 9.4
2018-May-09 08:30N 33°57' E 130°57'4 8.0
2018-May-09 08:00N 33°55' E 130°54'510.5
2018-May-09 07:30N 33°58' E 130°49'510.1
2018-May-09 07:00N 33°57' E 130°43'5 9.3
2018-May-09 06:30N 33°57' E 130°37'4 8.5
2018-May-09 06:00N 33°56' E 130°32'4 7.4
2018-May-09 05:30N 33°54' E 130°28'4 8.1
2018-May-09 05:00N 33°51' E 130°25'4 8.0
2018-May-09 04:30N 33°49' E 130°21'4 7.0
2018-May-09 04:00N 33°47' E 130°18'3 6.6
2018-May-09 03:30N 33°44' E 130°15'3 6.7
2018-May-09 03:00N 33°42' E 130°12'7 6.6
2018-May-09 01:55N 33°37' E 130°05'3 6.3
2018-May-09 01:26N 33°36' E 130°02'7 0.2
2018-May-07 09:21N 33°43' E 129°58'410.3
2018-May-07 08:57N 33°45' E 130°02'510.1
2018-May-07 08:30N 33°48' E 130°07'5 9.9
2018-May-07 08:00N 33°50' E 130°12'5 9.9
2018-May-07 07:30N 33°53' E 130°17'5 9.6
2018-May-07 07:00N 33°55' E 130°22'5 9.2
2018-May-07 06:29N 33°56' E 130°28'4 9.0
2018-May-07 06:00N 33°57' E 130°33'5 9.6
2018-May-07 05:30N 33°57' E 130°39'5 9.5
2018-May-07 05:00N 33°58' E 130°44'5 9.8
2018-May-07 04:30N 33°58' E 130°50'510.0
2018-May-07 04:00N 33°55' E 130°55'5 9.6
2018-May-07 03:30N 33°58' E 130°58'4 9.0
2018-May-07 03:00N 33°57' E 131°04'510.3
2018-May-07 02:30N 33°55' E 131°09'2 4.9
2018-May-07 02:00N 33°56' E 131°11'0 0.0
2018-May-07 01:30N 33°56' E 131°11'0 0.0
2018-May-07 01:00N 33°56' E 131°11'0 0.0
2018-May-07 00:30N 33°56' E 131°11'0 0.0
2018-May-07 00:00N 33°56' E 131°11'0 0.0
2018-May-06 23:30N 33°56' E 131°11'0 0.0
2018-May-06 23:00N 33°56' E 131°11'1 1.5
2018-May-06 22:30N 33°56' E 131°12'2 3.6
2018-May-06 22:00N 33°54' E 131°11'0 0.0
2018-May-06 21:30N 33°54' E 131°11'0 0.0
2018-May-06 21:00N 33°54' E 131°11'0 0.0
2018-May-06 20:30N 33°54' E 131°11'0 0.0
2018-May-06 20:00N 33°54' E 131°11'0 0.0
2018-May-06 19:30N 33°54' E 131°11'0 0.0
2018-May-06 19:00N 33°54' E 131°11'0 0.0
2018-May-06 18:30N 33°54' E 131°11'0 0.0
2018-May-06 18:00N 33°54' E 131°11'0 0.0
2018-May-06 17:30N 33°54' E 131°11'0 0.0
2018-May-06 17:00N 33°54' E 131°11'0 0.0
2018-May-06 16:30N 33°54' E 131°11'0 0.0
2018-May-06 16:00N 33°54' E 131°11'0 0.0
2018-May-06 15:30N 33°54' E 131°11'0 0.0
2018-May-06 15:00N 33°54' E 131°11'0 0.0
2018-May-06 14:30N 33°54' E 131°11'0 0.0
2018-May-06 14:00N 33°54' E 131°11'0 0.0
2018-May-06 13:30N 33°54' E 131°11'3 6.5
2018-May-06 13:00N 33°52' E 131°15'611.2
2018-May-06 12:30N 33°51' E 131°21'611.1
2018-May-06 12:00N 33°50' E 131°28'611.0
2018-May-06 11:30N 33°49' E 131°34'611.0
2018-May-06 11:00N 33°48' E 131°41'510.5
2018-May-06 10:30N 33°47' E 131°47'510.3
2018-May-06 09:59N 33°46' E 131°53'610.1
2018-May-06 09:21N 33°46' E 132°01'410.3
2018-May-06 08:56N 33°47' E 132°06'510.9
2018-May-06 08:30N 33°49' E 132°11'610.6
2018-May-06 07:56N 33°50' E 132°18'1210.9
2018-May-06 06:52N 33°53' E 132°32'411.0
2018-May-06 06:30N 33°54' E 132°36'510.9
2018-May-06 06:00N 33°57' E 132°42'5 1.0
2018-May-06 00:39N 34°01' E 132°46'1 7.3
2018-May-06 00:30N 34°00' E 132°45'3 7.0
2018-May-06 00:00N 33°57' E 132°43'4 7.0
2018-May-05 23:30N 33°54' E 132°42'2 4.0
2018-May-05 23:00N 33°52' E 132°42'0 0.0
2018-May-05 22:30N 33°52' E 132°42'0 0.0
2018-May-05 22:00N 33°52' E 132°42'0 0.0
2018-May-05 21:30N 33°52' E 132°42'0 0.0
2018-May-05 21:00N 33°52' E 132°42'0 0.0
2018-May-05 20:29N 33°52' E 132°42'0 0.0
2018-May-05 19:57N 33°52' E 132°42'0 0.0
2018-May-05 19:27N 33°52' E 132°42'0 0.0
2018-May-05 18:59N 33°52' E 132°42'0 0.0
2018-May-05 18:28N 33°52' E 132°42'0 0.0
2018-May-05 17:58N 33°52' E 132°42'0 0.0
2018-May-05 17:30N 33°52' E 132°42'0 0.0
2018-May-05 17:00N 33°52' E 132°42'0 0.0
2018-May-05 16:30N 33°52' E 132°42'0 0.0
2018-May-05 16:00N 33°52' E 132°42'0 0.0
2018-May-05 15:30N 33°52' E 132°42'0 0.0
2018-May-05 15:00N 33°52' E 132°42'0 0.0
2018-May-05 14:30N 33°52' E 132°42'  
Track history (hours):
 
Tides and Currents Weather Stations Pressure Air Temp Water Temp Dewpoint Dewpoint Depression Visibility Wind Speed Wind Dir Waves Ship Positions

Nadeshiko_maru

Last reported at 2018-May-15 14:20 UTC. Time now 2018-Jun-23 04:44 UTC.
Position N 34°11' E 132°20'.
Warning: this ship's position is 38 days out of date.

Length 69 m; draft 4.5 m.

Type: Tanker. MMSI: 431000393.

Date/timePositionNaut miles runAvg speedWind from/ knotsBaromVisibWave heightAir tempDewpointWater temp
2018-May-15 14:20N 34°11' E 132°20'310.1
2018-May-15 14:00N 34°08' E 132°20'5 9.8
2018-May-15 13:30N 34°03' E 132°17'6 9.9
2018-May-15 12:54N 33°59' E 132°12'4 9.2
2018-May-15 12:27N 33°56' E 132°09'610.7
2018-May-15 11:54N 33°50' E 132°10'410.5
2018-May-15 11:30N 33°47' E 132°06'510.3
2018-May-15 10:59N 33°45' E 132°00'510.0
2018-May-15 10:30N 33°45' E 131°54'5 9.5
2018-May-15 09:59N 33°46' E 131°49'4 9.2
2018-May-15 09:30N 33°47' E 131°43'5 9.1
2018-May-15 09:00N 33°48' E 131°38'5 9.3
2018-May-15 08:30N 33°49' E 131°32'5 9.4
2018-May-15 08:00N 33°50' E 131°27'5 9.6
2018-May-15 07:30N 33°51' E 131°21'5 9.7
2018-May-15 07:00N 33°52' E 131°16'4 8.5
2018-May-15 06:30N 33°55' E 131°12'1 2.6
2018-May-15 06:00N 33°56' E 131°11'0 0.0
2018-May-15 05:30N 33°56' E 131°11'0 0.0
2018-May-15 05:00N 33°56' E 131°11'0 0.0
2018-May-15 04:30N 33°56' E 131°11'0 0.0
2018-May-15 04:00N 33°56' E 131°11'0 0.5
2018-May-15 03:30N 33°56' E 131°11'1 1.9
2018-May-15 03:00N 33°55' E 131°12'1 2.3
2018-May-15 02:30N 33°54' E 131°11'0 0.0
2018-May-15 02:00N 33°54' E 131°11'2 3.0
2018-May-15 01:30N 33°54' E 131°09'510.3
2018-May-15 01:00N 33°56' E 131°04'4 9.0
2018-May-15 00:30N 33°58' E 130°59'4 7.6
2018-May-15 00:00N 33°55' E 130°56'3 5.3
2018-May-14 23:30N 33°55' E 130°53'5 9.1
2018-May-14 23:00N 33°58' E 130°48'510.8
2018-May-14 22:30N 33°58' E 130°42'611.1
2018-May-14 22:00N 33°57' E 130°35'611.3
2018-May-14 21:29N 33°57' E 130°28'510.4
2018-May-14 21:00N 33°55' E 130°22'611.3
2018-May-14 20:30N 33°52' E 130°16'611.4
2018-May-14 20:00N 33°49' E 130°10'611.3
2018-May-14 19:30N 33°46' E 130°05'911.4
2018-May-14 18:44N 33°41' E 129°56'511.7
2018-May-14 18:20N 33°39' E 129°51'411.4
2018-May-14 18:00N 33°38' E 129°47'711.3
2018-May-14 17:22N 33°34' E 129°39'411.3
2018-May-14 17:00N 33°33' E 129°34'17 0.5
2018-May-13 10:25N 33°40' E 129°52'5 9.7
2018-May-13 09:54N 33°43' E 129°58'4 9.6
2018-May-13 09:30N 33°45' E 130°02'910.0
2018-May-13 08:34N 33°49' E 130°11'1 9.9
2018-May-13 08:28N 33°50' E 130°13'510.1
2018-May-13 08:00N 33°52' E 130°17'510.1
2018-May-13 07:29N 33°55' E 130°23'510.1
2018-May-13 07:00N 33°56' E 130°28'5 9.7
2018-May-13 06:30N 33°57' E 130°34'5 9.8
2018-May-13 06:00N 33°58' E 130°40'5 9.9
2018-May-13 05:30N 33°58' E 130°46'5 9.4
2018-May-13 05:00N 33°57' E 130°51'4 7.9
2018-May-13 04:30N 33°55' E 130°55'3 6.1
2018-May-13 04:00N 33°57' E 130°57'3 5.1
2018-May-13 03:30N 33°59' E 130°59'4 8.8
2018-May-13 03:00N 33°57' E 131°04'5 9.6
2018-May-13 02:31N 33°55' E 131°09'2 4.5
2018-May-13 02:00N 33°56' E 131°11'0 0.1
2018-May-13 01:30N 33°56' E 131°11'0 0.0
2018-May-13 01:00N 33°56' E 131°11'0 0.0
2018-May-13 00:30N 33°56' E 131°11'0 0.0
2018-May-13 00:00N 33°56' E 131°11'0 0.0
2018-May-12 23:30N 33°56' E 131°11'0 0.0
2018-May-12 23:00N 33°56' E 131°11'0 0.0
2018-May-12 22:30N 33°56' E 131°11'1 2.5
2018-May-12 22:00N 33°55' E 131°12'1 2.9
2018-May-12 21:30N 33°54' E 131°11'0 0.0
2018-May-12 21:00N 33°54' E 131°11'0 0.0
2018-May-12 20:29N 33°54' E 131°11'0 0.0
2018-May-12 20:00N 33°54' E 131°11'0 0.0
2018-May-12 19:30N 33°54' E 131°11'0 0.0
2018-May-12 19:00N 33°54' E 131°11'0 0.0
2018-May-12 18:30N 33°54' E 131°11'0 0.0
2018-May-12 18:00N 33°54' E 131°11'0 0.0
2018-May-12 17:28N 33°54' E 131°11'0 0.0
2018-May-12 17:00N 33°54' E 131°11'0 0.0
2018-May-12 16:30N 33°54' E 131°11'0 0.0
2018-May-12 16:00N 33°54' E 131°11'0 0.0
2018-May-12 15:30N 33°54' E 131°11'0 0.0
2018-May-12 15:00N 33°53' E 131°11'0 0.0
2018-May-12 14:30N 33°53' E 131°11'0 0.0
2018-May-12 13:59N 33°53' E 131°11'0 0.0
2018-May-12 13:30N 33°53' E 131°11'0 0.0
2018-May-12 13:00N 33°53' E 131°11'0 0.0
2018-May-12 12:30N 33°53' E 131°11'0 0.0
2018-May-12 12:00N 33°53' E 131°11'0 0.0
2018-May-12 11:30N 33°53' E 131°11'0 0.1
2018-May-12 11:00N 33°53' E 131°11'4 7.5
2018-May-12 10:30N 33°52' E 131°16'611.3
2018-May-12 10:00N 33°51' E 131°22'611.5
2018-May-12 09:30N 33°50' E 131°29'611.2
2018-May-12 09:00N 33°49' E 131°36'611.6
2018-May-12 08:30N 33°48' E 131°43'611.4
2018-May-12 08:00N 33°47' E 131°49'611.6
2018-May-12 07:30N 33°46' E 131°56'611.4
2018-May-12 07:00N 33°46' E 132°03'611.0
2018-May-12 06:26N 33°49' E 132°09'410.0
2018-May-12 06:00N 33°54' E 132°09'4 8.1
2018-May-12 05:30N 33°58' E 132°11'5 9.8
2018-May-12 04:57N 34°02' E 132°15'511.0
2018-May-12 04:29N 34°06' E 132°19'611.1
2018-May-12 03:57N 34°12' E 132°20'510.4
2018-May-12 03:30N 34°16' E 132°22'611.4
2018-May-12 03:00N 34°18' E 132°28'1 3.0
2018-May-12 02:30N 34°18' E 132°30'0 0.0
2018-May-12 02:00N 34°18' E 132°30'0 0.0
2018-May-12 01:30N 34°18' E 132°30'0 0.0
2018-May-12 01:00N 34°18' E 132°30'0 0.0
2018-May-12 00:30N 34°18' E 132°30'0 0.0
2018-May-12 00:00N 34°18' E 132°30'0 0.3
2018-May-11 23:30N 34°18' E 132°30'1 1.7
2018-May-11 23:00N 34°18' E 132°29'0 0.1
2018-May-11 22:30N 34°18' E 132°29'0 0.0
2018-May-11 22:00N 34°18' E 132°29'0 0.1
2018-May-11 21:30N 34°18' E 132°29'0 0.0
2018-May-11 21:00N 34°18' E 132°29'0 0.1
2018-May-11 20:30N 34°18' E 132°29'0 0.0
2018-May-11 20:00N 34°18' E 132°29'0 0.0
2018-May-11 19:30N 34°18' E 132°29'0 0.0
2018-May-11 19:00N 34°18' E 132°29'0 0.0
2018-May-11 18:29N 34°18' E 132°29'0 0.0
2018-May-11 18:00N 34°18' E 132°29'0 0.0
2018-May-11 17:30N 34°18' E 132°29'0 0.1
2018-May-11 17:00N 34°18' E 132°29'0 0.0
2018-May-11 16:30N 34°18' E 132°29'0 0.0
2018-May-11 15:59N 34°18' E 132°29'0 0.0
2018-May-11 15:30N 34°18' E 132°29'0 0.0
2018-May-11 15:00N 34°18' E 132°29'0 0.0
2018-May-11 14:29N 34°18' E 132°29'0 0.0
2018-May-11 14:00N 34°18' E 132°29'0 0.0
2018-May-11 13:30N 34°18' E 132°29'0 0.0
2018-May-11 13:00N 34°18' E 132°29'3 5.8
2018-May-11 12:30N 34°17' E 132°26'5 9.9
2018-May-11 11:59N 34°15' E 132°20'510.0
2018-May-11 11:30N 34°10' E 132°20'5 9.7
2018-May-11 11:00N 34°05' E 132°18'610.2
2018-May-11 10:27N 34°01' E 132°14'5 9.5
2018-May-11 09:57N 33°57' E 132°10'4 9.0
2018-May-11 09:30N 33°53' E 132°10'5 9.5
2018-May-11 08:58N 33°48' E 132°08'510.5
2018-May-11 08:30N 33°46' E 132°03'510.4
2018-May-11 08:00N 33°45' E 131°57'510.0
2018-May-11 07:30N 33°46' E 131°51'510.0
2018-May-11 06:58N 33°47' E 131°44'5 9.8
2018-May-11 06:29N 33°48' E 131°39'5 9.9
2018-May-11 06:00N 33°48' E 131°33'5 9.6
2018-May-11 05:30N 33°50' E 131°27'5 9.7
2018-May-11 05:00N 33°51' E 131°22'5 9.6
2018-May-11 04:30N 33°52' E 131°16'5 9.0
2018-May-11 04:00N 33°54' E 131°12'1 1.2
2018-May-11 03:30N 33°55' E 131°11'1 2.2
2018-May-11 03:00N 33°56' E 131°12'1 1.3
2018-May-11 02:30N 33°56' E 131°11'0 0.0
2018-May-11 02:00N 33°56' E 131°11'0 0.0
2018-May-11 01:30N 33°56' E 131°11'0 0.0
2018-May-11 01:00N 33°56' E 131°11'0 0.0
2018-May-11 00:30N 33°56' E 131°11'0 0.0
2018-May-11 00:00N 33°56' E 131°11'2 3.9
2018-May-10 23:30N 33°54' E 131°12'4 8.5
2018-May-10 23:00N 33°54' E 131°06'510.6
2018-May-10 22:30N 33°58' E 131°02'4 8.1
2018-May-10 22:00N 33°57' E 130°57'1 2.4
2018-May-10 21:30N 33°57' E 130°56'0 0.0
2018-May-10 21:00N 33°57' E 130°56'0 0.0
2018-May-10 20:30N 33°57' E 130°56'0 0.0
2018-May-10 20:00N 33°57' E 130°56'0 0.0
2018-May-10 19:30N 33°57' E 130°56'0 0.0
2018-May-10 19:00N 33°57' E 130°56'0 0.0
2018-May-10 18:30N 33°57' E 130°56'0 0.0
2018-May-10 18:00N 33°57' E 130°56'0 0.0
2018-May-10 17:30N 33°57' E 130°56'0 0.0
2018-May-10 17:00N 33°57' E 130°56'0 0.0
2018-May-10 16:30N 33°57' E 130°56'0 0.0
2018-May-10 16:00N 33°57' E 130°56'0 0.0
2018-May-10 15:30N 33°57' E 130°56'0 0.0
2018-May-10 15:00N 33°57' E 130°56'0 0.0
2018-May-10 14:30N 33°57' E 130°56'0 0.0
2018-May-10 13:59N 33°57' E 130°56'0 0.0
2018-May-10 13:30N 33°57' E 130°56'0 0.0
2018-May-10 13:00N 33°57' E 130°56'0 0.0
2018-May-10 12:30N 33°57' E 130°56'0 0.0
2018-May-10 12:00N 33°57' E 130°56'0 0.0
2018-May-10 11:30N 33°57' E 130°56'0 0.0
2018-May-10 11:00N 33°57' E 130°56'0 0.0
2018-May-10 10:30N 33°57' E 130°56'0 0.0
2018-May-10 10:00N 33°57' E 130°56'0 0.0
2018-May-10 09:30N 33°57' E 130°56'0 0.0
2018-May-10 09:00N 33°57' E 130°56'0 0.0
2018-May-10 08:30N 33°57' E 130°56'0 0.0
2018-May-10 08:00N 33°57' E 130°56'0 0.0
2018-May-10 07:30N 33°57' E 130°56'0 0.0
2018-May-10 07:00N 33°57' E 130°56'2 4.5
2018-May-10 06:30N 33°54' E 130°55'510.7
2018-May-10 06:00N 33°58' E 130°50'611.1
2018-May-10 05:30N 33°58' E 130°43'510.8
2018-May-10 05:00N 33°57' E 130°37'510.7
2018-May-10 04:30N 33°56' E 130°31'5 9.2
2018-May-10 04:00N 33°53' E 130°27'510.5
2018-May-10 03:30N 33°49' E 130°23'510.1
2018-May-10 03:00N 33°45' E 130°19'5 9.3
2018-May-10 02:30N 33°41' E 130°17'4 8.9
2018-May-10 02:00N 33°39' E 130°21'0 0.2
2018-May-10 01:30N 33°39' E 130°21'0 0.0
2018-May-10 01:00N 33°39' E 130°21'0 0.0
2018-May-10 00:30N 33°39' E 130°21'0 0.0
2018-May-10 00:00N 33°39' E 130°21'1 1.7
2018-May-09 23:30N 33°38' E 130°21'1 1.3
2018-May-09 23:00N 33°37' E 130°20'0 0.0
2018-May-09 22:30N 33°37' E 130°20'0 0.1
2018-May-09 22:00N 33°38' E 130°20'0 0.0
2018-May-09 21:30N 33°38' E 130°20'0 0.1
2018-May-09 21:00N 33°38' E 130°20'0 0.0
2018-May-09 20:30N 33°38' E 130°20'0 0.0
2018-May-09 20:00N 33°38' E 130°20'0 0.1
2018-May-09 19:30N 33°38' E 130°20'1 1.7
2018-May-09 19:00N 33°38' E 130°19'5 9.3
2018-May-09 18:29N 33°42' E 130°16'510.7
2018-May-09 18:00N 33°46' E 130°20'510.8
2018-May-09 17:30N 33°50' E 130°24'510.7
2018-May-09 17:00N 33°54' E 130°28'5 9.7
2018-May-09 16:30N 33°57' E 130°33'510.5
2018-May-09 16:00N 33°58' E 130°39'510.7
2018-May-09 15:30N 33°58' E 130°46'510.0
2018-May-09 15:01N 33°57' E 130°52'4 7.9
2018-May-09 14:30N 33°55' E 130°55'4 7.8
2018-May-09 14:00N 33°58' E 130°58'4 7.6
2018-May-09 13:30N 33°58' E 131°02'5 9.9
2018-May-09 13:00N 33°55' E 131°07'4 7.5
2018-May-09 12:30N 33°55' E 131°12'1 1.4
2018-May-09 12:00N 33°56' E 131°11'0 0.0
2018-May-09 11:30N 33°56' E 131°11'0 0.0
2018-May-09 11:00N 33°56' E 131°11'0 0.0
2018-May-09 10:30N 33°56' E 131°11'0 0.1
2018-May-09 10:00N 33°56' E 131°11'3 5.5
2018-May-09 09:30N 33°55' E 131°08'511.1
2018-May-09 09:00N 33°57' E 131°03'5 9.4
2018-May-09 08:30N 33°57' E 130°57'4 8.0
2018-May-09 08:00N 33°55' E 130°54'510.5
2018-May-09 07:30N 33°58' E 130°49'510.1
2018-May-09 07:00N 33°57' E 130°43'5 9.3
2018-May-09 06:30N 33°57' E 130°37'4 8.5
2018-May-09 06:00N 33°56' E 130°32'4 7.4
2018-May-09 05:30N 33°54' E 130°28'4 8.1
2018-May-09 05:00N 33°51' E 130°25'4 8.0
2018-May-09 04:30N 33°49' E 130°21'4 7.0
2018-May-09 04:00N 33°47' E 130°18'3 6.6
2018-May-09 03:30N 33°44' E 130°15'3 6.7
2018-May-09 03:00N 33°42' E 130°12'7 6.6
2018-May-09 01:55N 33°37' E 130°05'3 6.3
2018-May-09 01:26N 33°36' E 130°02'7 0.2
2018-May-07 09:21N 33°43' E 129°58'410.3
2018-May-07 08:57N 33°45' E 130°02'510.1
2018-May-07 08:30N 33°48' E 130°07'5 9.9
2018-May-07 08:00N 33°50' E 130°12'5 9.9
2018-May-07 07:30N 33°53' E 130°17'5 9.6
2018-May-07 07:00N 33°55' E 130°22'5 9.2
2018-May-07 06:29N 33°56' E 130°28'4 9.0
2018-May-07 06:00N 33°57' E 130°33'5 9.6
2018-May-07 05:30N 33°57' E 130°39'5 9.5
2018-May-07 05:00N 33°58' E 130°44'5 9.8
2018-May-07 04:30N 33°58' E 130°50'510.0
2018-May-07 04:00N 33°55' E 130°55'5 9.6
2018-May-07 03:30N 33°58' E 130°58'4 9.0
2018-May-07 03:00N 33°57' E 131°04'510.3
2018-May-07 02:30N 33°55' E 131°09'2 4.9
2018-May-07 02:00N 33°56' E 131°11'0 0.0
2018-May-07 01:30N 33°56' E 131°11'0 0.0
2018-May-07 01:00N 33°56' E 131°11'0 0.0
2018-May-07 00:30N 33°56' E 131°11'0 0.0
2018-May-07 00:00N 33°56' E 131°11'0 0.0
2018-May-06 23:30N 33°56' E 131°11'0 0.0
2018-May-06 23:00N 33°56' E 131°11'1 1.5
2018-May-06 22:30N 33°56' E 131°12'2 3.6
2018-May-06 22:00N 33°54' E 131°11'0 0.0
2018-May-06 21:30N 33°54' E 131°11'0 0.0
2018-May-06 21:00N 33°54' E 131°11'0 0.0
2018-May-06 20:30N 33°54' E 131°11'0 0.0
2018-May-06 20:00N 33°54' E 131°11'0 0.0
2018-May-06 19:30N 33°54' E 131°11'0 0.0
2018-May-06 19:00N 33°54' E 131°11'0 0.0
2018-May-06 18:30N 33°54' E 131°11'0 0.0
2018-May-06 18:00N 33°54' E 131°11'0 0.0
2018-May-06 17:30N 33°54' E 131°11'0 0.0
2018-May-06 17:00N 33°54' E 131°11'0 0.0
2018-May-06 16:30N 33°54' E 131°11'0 0.0
2018-May-06 16:00N 33°54' E 131°11'0 0.0
2018-May-06 15:30N 33°54' E 131°11'0 0.0
2018-May-06 15:00N 33°54' E 131°11'0 0.0
2018-May-06 14:30N 33°54' E 131°11'0 0.0
2018-May-06 14:00N 33°54' E 131°11'0 0.0
2018-May-06 13:30N 33°54' E 131°11'3 6.5
2018-May-06 13:00N 33°52' E 131°15'611.2
2018-May-06 12:30N 33°51' E 131°21'611.1
2018-May-06 12:00N 33°50' E 131°28'611.0
2018-May-06 11:30N 33°49' E 131°34'611.0
2018-May-06 11:00N 33°48' E 131°41'510.5
2018-May-06 10:30N 33°47' E 131°47'510.3
2018-May-06 09:59N 33°46' E 131°53'610.1
2018-May-06 09:21N 33°46' E 132°01'410.3
2018-May-06 08:56N 33°47' E 132°06'510.9
2018-May-06 08:30N 33°49' E 132°11'610.6
2018-May-06 07:56N 33°50' E 132°18'1210.9
2018-May-06 06:52N 33°53' E 132°32'411.0
2018-May-06 06:30N 33°54' E 132°36'510.9
2018-May-06 06:00N 33°57' E 132°42'5 1.0
2018-May-06 00:39N 34°01' E 132°46'1 7.3
2018-May-06 00:30N 34°00' E 132°45'3 7.0
2018-May-06 00:00N 33°57' E 132°43'4 7.0
2018-May-05 23:30N 33°54' E 132°42'2 4.0
2018-May-05 23:00N 33°52' E 132°42'0 0.0
2018-May-05 22:30N 33°52' E 132°42'0 0.0
2018-May-05 22:00N 33°52' E 132°42'0 0.0
2018-May-05 21:30N 33°52' E 132°42'0 0.0
2018-May-05 21:00N 33°52' E 132°42'0 0.0
2018-May-05 20:29N 33°52' E 132°42'0 0.0
2018-May-05 19:57N 33°52' E 132°42'0 0.0
2018-May-05 19:27N 33°52' E 132°42'0 0.0
2018-May-05 18:59N 33°52' E 132°42'0 0.0
2018-May-05 18:28N 33°52' E 132°42'0 0.0
2018-May-05 17:58N 33°52' E 132°42'0 0.0
2018-May-05 17:30N 33°52' E 132°42'0 0.0
2018-May-05 17:00N 33°52' E 132°42'0 0.0
2018-May-05 16:30N 33°52' E 132°42'0 0.0
2018-May-05 16:00N 33°52' E 132°42'0 0.0
2018-May-05 15:30N 33°52' E 132°42'0 0.0
2018-May-05 15:00N 33°52' E 132°42'0 0.0
2018-May-05 14:30N 33°52' E 132°42'  

Dump ship's entire track history